createdAt,value
2022-11-27T00:04:29.838Z,14.88
2022-11-27T00:11:21.203Z,15.05
2022-11-27T00:18:06.853Z,12.90
2022-11-27T00:24:52.330Z,12.93
2022-11-27T00:31:41.008Z,11.43
2022-11-27T00:38:26.570Z,14.57
2022-11-27T00:45:13.931Z,13.90
2022-11-27T00:52:02.231Z,15.90
2022-11-27T00:58:47.857Z,15.10
2022-11-27T01:05:33.265Z,12.32
2022-11-27T01:12:21.372Z,11.82
2022-11-27T01:19:07.600Z,17.30
2022-11-27T01:25:53.775Z,15.93
2022-11-27T01:32:41.844Z,14.90
2022-11-27T01:39:27.278Z,14.55
2022-11-27T01:46:42.685Z,13.02
2022-11-27T01:53:30.842Z,15.15
2022-11-27T02:00:27.057Z,16.17
2022-11-27T02:07:12.612Z,16.97
2022-11-27T02:14:13.955Z,12.52
2022-11-27T02:21:07.838Z,13.27
2022-11-27T02:28:30.443Z,11.57
2022-11-27T02:35:24.262Z,13.45
2022-11-27T02:42:14.661Z,10.88
2022-11-27T02:49:04.755Z,12.73
2022-11-27T02:55:55.765Z,14.07
2022-11-27T03:02:49.042Z,12.93
2022-11-27T03:09:40.323Z,10.73
2022-11-27T03:16:40.727Z,10.00
2022-11-27T03:23:26.249Z,11.88
2022-11-27T03:30:14.590Z,11.32
2022-11-27T03:37:02.949Z,10.73
2022-11-27T03:44:00.416Z,15.57
2022-11-27T04:04:37.678Z,16.20
2022-11-27T04:11:23.203Z,13.82
2022-11-27T04:18:08.975Z,13.80
2022-11-27T04:24:56.961Z,12.50
2022-11-27T04:31:42.437Z,13.77
2022-11-27T04:38:27.949Z,11.65
2022-11-27T04:45:16.343Z,13.68
2022-11-27T04:52:02.328Z,12.38
2022-11-27T04:58:47.865Z,12.33
2022-11-27T05:05:35.954Z,11.95
2022-11-27T05:12:21.603Z,11.10
2022-11-27T05:19:07.429Z,10.40
2022-11-27T05:25:55.504Z,14.70
2022-11-27T05:32:41.578Z,36.83
2022-11-27T05:39:27.256Z,42.50
2022-11-27T05:46:18.628Z,10.27
2022-11-27T05:53:05.145Z,11.63
2022-11-27T05:59:50.621Z,12.40
2022-11-27T06:06:38.632Z,18.25
2022-11-27T06:13:24.080Z,14.82
2022-11-27T06:20:11.675Z,24.25
2022-11-27T06:26:59.988Z,33.58
2022-11-27T06:33:45.777Z,52.47
2022-11-27T06:40:31.417Z,40.83
2022-11-27T06:47:19.453Z,26.75
2022-11-27T06:54:06.372Z,24.80
2022-11-27T07:00:51.813Z,29.95
2022-11-27T07:07:43.784Z,20.42
2022-11-27T07:14:29.495Z,26.27
2022-11-27T07:21:15.735Z,37.70
2022-11-27T07:28:03.826Z,30.03
2022-11-27T07:34:49.424Z,38.88
2022-11-27T07:41:34.881Z,37.83
2022-11-27T07:48:22.872Z,30.92
2022-11-27T07:55:09.182Z,24.83
2022-11-27T08:01:54.798Z,32.73
2022-11-27T08:08:42.811Z,37.92
2022-11-27T08:15:28.223Z,25.52
2022-11-27T08:22:16.679Z,26.15
2022-11-27T08:29:06.649Z,51.80
2022-11-27T08:35:52.719Z,31.02
2022-11-27T08:42:38.599Z,40.65
2022-11-27T08:49:26.846Z,27.05
2022-11-27T08:56:17.376Z,29.38
2022-11-27T09:03:02.998Z,25.80
2022-11-27T09:09:51.262Z,28.27
2022-11-27T09:16:37.581Z,33.65
2022-11-27T09:23:23.329Z,28.70
2022-11-27T09:30:14.383Z,27.55
2022-11-27T09:36:59.896Z,24.48
2022-11-27T09:43:54.213Z,23.25
2022-11-27T09:50:50.473Z,21.02
2022-11-27T09:57:41.764Z,26.63
2022-11-27T10:04:39.893Z,21.33
2022-11-27T10:11:47.060Z,21.80
2022-11-27T10:18:40.385Z,20.52
2022-11-27T10:25:35.182Z,20.73
2022-11-27T10:32:53.965Z,22.23
2022-11-27T10:39:42.881Z,26.52
2022-11-27T10:46:33.132Z,22.97
2022-11-27T10:53:29.321Z,23.58
2022-11-27T11:00:22.157Z,20.53
2022-11-27T11:07:07.624Z,23.02
2022-11-27T11:13:56.044Z,27.27
2022-11-27T11:20:41.675Z,23.67
2022-11-27T11:27:30.978Z,24.13
2022-11-27T11:34:26.927Z,26.23
2022-11-27T11:41:12.940Z,22.15
2022-11-27T11:48:00.975Z,25.33
2022-11-27T11:55:03.381Z,29.23
2022-11-27T12:02:28.636Z,28.05
2022-11-27T12:09:41.995Z,27.08
2022-11-27T12:16:43.037Z,23.40
2022-11-27T12:23:52.570Z,24.83
2022-11-27T12:30:49.539Z,22.77
2022-11-27T12:37:53.005Z,23.60
2022-11-27T12:44:49.717Z,26.70
2022-11-27T12:51:42.594Z,27.60
2022-11-27T12:58:34.772Z,27.10
2022-11-27T13:05:26.324Z,26.48
2022-11-27T13:12:14.445Z,24.85
2022-11-27T13:19:13.030Z,27.33
2022-11-27T13:26:00.621Z,23.42
2022-11-27T13:32:52.908Z,25.02
2022-11-27T13:39:44.915Z,24.25
2022-11-27T13:46:33.531Z,28.98
2022-11-27T13:53:18.963Z,30.10
2022-11-27T14:00:11.646Z,24.45
2022-11-27T14:07:07.077Z,27.38
2022-11-27T14:13:55.473Z,26.75
2022-11-27T14:20:52.075Z,30.83
2022-11-27T14:27:39.095Z,29.33
2022-11-27T14:34:30.784Z,27.65
2022-11-27T14:41:23.883Z,30.92
2022-11-27T14:48:09.868Z,26.90
2022-11-27T14:54:56.136Z,28.23
2022-11-27T15:01:45.945Z,28.13
2022-11-27T15:08:34.814Z,28.25
2022-11-27T15:15:26.236Z,28.42
2022-11-27T15:22:21.376Z,30.58
2022-11-27T15:29:08.233Z,28.42
2022-11-27T15:42:42.251Z,27.98
2022-11-27T15:49:33.752Z,29.17
2022-11-27T15:56:19.702Z,27.30
2022-11-27T16:03:07.753Z,29.48
2022-11-27T16:09:53.208Z,24.90
2022-11-27T16:16:38.923Z,25.08
2022-11-27T16:23:27.007Z,27.40
2022-11-27T16:30:14.540Z,26.88
2022-11-27T16:37:00.081Z,24.42
2022-11-27T16:43:51.445Z,31.95
2022-11-27T16:50:38.946Z,27.50
2022-11-27T16:57:24.347Z,28.30
2022-11-27T17:04:19.181Z,48.38
2022-11-27T17:11:11.522Z,36.88
2022-11-27T17:17:58.694Z,33.53
2022-11-27T17:24:46.921Z,36.30
2022-11-27T17:31:37.215Z,40.00
2022-11-27T17:38:23.463Z,27.27
2022-11-27T17:45:12.894Z,30.15
2022-11-27T17:52:01.781Z,27.05
2022-11-27T17:58:51.110Z,29.23
2022-11-27T18:05:43.033Z,28.77
2022-11-27T18:12:28.501Z,30.13
2022-11-27T18:19:15.023Z,25.58
2022-11-27T18:26:04.328Z,44.90
2022-11-27T18:32:50.034Z,30.30
2022-11-27T18:39:35.498Z,23.15
2022-11-27T18:46:24.548Z,26.25
2022-11-27T18:53:11.031Z,25.83
2022-11-27T18:59:56.643Z,22.92
2022-11-27T19:06:45.917Z,24.17
2022-11-27T19:13:32.317Z,50.45
2022-11-27T19:20:19.583Z,23.40
2022-11-27T19:27:08.441Z,19.27
2022-11-27T19:33:55.867Z,28.05
2022-11-27T19:40:41.783Z,29.20
2022-11-27T19:47:29.830Z,23.23
2022-11-27T19:54:19.284Z,31.33
2022-11-27T20:01:16.001Z,25.48
2022-11-27T20:08:04.199Z,19.35
2022-11-27T20:14:49.698Z,21.33
2022-11-27T20:21:36.620Z,21.85
2022-11-27T20:28:25.188Z,23.53
2022-11-27T20:35:11.644Z,25.70
2022-11-27T20:41:57.183Z,24.25
2022-11-27T20:48:47.689Z,21.58
2022-11-27T20:55:33.273Z,27.90
2022-11-27T21:02:19.023Z,26.02
2022-11-27T21:09:10.261Z,24.42
2022-11-27T21:15:56.079Z,27.38
2022-11-27T21:22:44.084Z,24.85
2022-11-27T21:29:32.298Z,22.33
2022-11-27T21:36:18.578Z,24.10
2022-11-27T21:43:04.078Z,22.75
2022-11-27T21:49:53.540Z,23.30
2022-11-27T21:56:40.884Z,25.23
2022-11-27T22:03:26.370Z,19.02
2022-11-27T22:10:15.890Z,20.92
2022-11-27T22:17:02.246Z,21.35
2022-11-27T22:23:48.770Z,22.03
2022-11-27T22:30:37.083Z,25.38
2022-11-27T22:37:22.647Z,21.45
2022-11-27T22:44:09.527Z,22.50
2022-11-27T22:51:02.010Z,22.83
2022-11-27T22:57:47.551Z,28.88
2022-11-27T23:04:33.105Z,24.60
2022-11-27T23:11:24.629Z,27.25
2022-11-27T23:18:10.022Z,23.70
2022-11-27T23:24:56.993Z,26.40
2022-11-27T23:31:45.668Z,27.77
2022-11-27T23:38:32.105Z,26.35
2022-11-27T23:45:17.853Z,23.10
2022-11-27T23:52:05.921Z,22.15
2022-11-27T23:58:51.815Z,23.90
